createdAt,value
2018-12-27T00:01:13.703Z,102019.73
2018-12-27T00:03:45.642Z,102018.52
2018-12-27T00:06:15.860Z,102015.98
2018-12-27T00:08:46.530Z,102007.61
2018-12-27T00:11:17.168Z,102012.93
2018-12-27T00:14:08.154Z,102001.12
2018-12-27T00:16:38.484Z,101999.33
2018-12-27T00:19:08.778Z,102011.14
2018-12-27T00:21:51.254Z,102013.86
2018-12-27T00:24:16.571Z,102003.23
2018-12-27T00:26:46.916Z,102010.49
2018-12-27T00:29:17.182Z,102010.55
2018-12-27T00:31:48.185Z,102015.81
2018-12-27T00:34:40.703Z,102017.59
2018-12-27T00:37:11.197Z,102019.39
2018-12-27T00:39:41.702Z,102011.02
2018-12-27T00:42:12.461Z,102011.14
2018-12-27T00:44:44.621Z,102013.09
2018-12-27T00:47:15.463Z,102007.43
2018-12-27T00:49:46.268Z,102004.31
2018-12-27T00:52:28.823Z,102010.16
2018-12-27T00:55:00.252Z,101996.15
2018-12-27T00:57:31.096Z,101996.39
2018-12-27T01:00:01.584Z,101992.94
2018-12-27T01:02:32.197Z,101995.59
2018-12-27T01:05:02.566Z,101997.81
2018-12-27T01:07:33.070Z,101993.55
2018-12-27T01:10:03.739Z,101986.10
2018-12-27T01:12:34.483Z,101993.08
2018-12-27T01:15:04.958Z,101993.02
2018-12-27T01:17:35.373Z,101993.27
2018-12-27T01:20:05.863Z,101989.23
2018-12-27T01:22:36.446Z,101988.30
2018-12-27T01:25:06.938Z,101982.98
2018-12-27T01:27:38.096Z,101983.52
2018-12-27T01:30:09.011Z,101979.00
2018-12-27T01:32:39.461Z,101978.26
2018-12-27T01:35:09.886Z,101986.72
2018-12-27T01:37:40.477Z,101982.33
2018-12-27T01:40:11.310Z,101982.45
2018-12-27T01:42:41.785Z,101978.81
2018-12-27T01:45:12.190Z,101985.05
2018-12-27T01:47:42.598Z,101985.23
2018-12-27T01:50:12.961Z,101976.00
2018-12-27T01:52:44.107Z,101987.95
2018-12-27T01:55:14.959Z,101983.13
2018-12-27T01:57:47.049Z,101982.73
2018-12-27T02:00:17.685Z,101982.64
2018-12-27T02:02:48.183Z,101978.28
2018-12-27T02:05:18.669Z,101980.13
2018-12-27T02:07:49.139Z,101981.00
2018-12-27T02:10:19.665Z,101980.25
2018-12-27T02:12:50.140Z,101974.20
2018-12-27T02:15:20.617Z,101975.98
2018-12-27T02:17:51.060Z,101971.16
2018-12-27T02:20:21.707Z,101975.09
2018-12-27T02:22:52.261Z,101974.22
2018-12-27T02:25:41.733Z,101968.16
2018-12-27T02:28:12.537Z,101965.69
2018-12-27T02:30:43.016Z,101962.17
2018-12-27T02:33:13.672Z,101965.72
2018-12-27T02:35:44.232Z,101959.08
2018-12-27T02:38:14.639Z,101958.67
2018-12-27T02:40:56.369Z,101961.51
2018-12-27T02:43:38.443Z,101950.89
2018-12-27T02:46:08.822Z,101949.56
2018-12-27T02:48:39.710Z,101946.44
2018-12-27T02:51:21.870Z,101942.00
2018-12-27T02:53:52.640Z,101935.48
2018-12-27T02:56:23.100Z,101937.67
2018-12-27T02:58:53.506Z,101936.69
2018-12-27T03:01:24.064Z,101925.20
2018-12-27T03:03:54.553Z,101926.13
2018-12-27T03:06:24.969Z,101921.39
2018-12-27T03:08:55.875Z,101916.58
2018-12-27T03:11:26.608Z,101907.86
2018-12-27T03:13:57.682Z,101910.12
2018-12-27T03:19:09.864Z,101907.18
2018-12-27T03:21:40.381Z,101911.05
2018-12-27T03:24:22.842Z,101909.84
2018-12-27T03:27:05.252Z,101905.88
2018-12-27T03:29:35.757Z,101905.88
2018-12-27T03:32:06.207Z,101903.69
2018-12-27T03:34:37.006Z,101892.58
2018-12-27T03:37:07.485Z,101895.27
2018-12-27T03:39:38.225Z,101898.44
2018-12-27T03:42:08.875Z,101892.73
2018-12-27T03:44:39.343Z,101885.28
2018-12-27T03:47:09.828Z,101886.09
2018-12-27T03:49:40.417Z,101884.42
2018-12-27T03:52:10.960Z,101885.22
2018-12-27T03:54:41.790Z,101875.47
2018-12-27T03:57:12.235Z,101882.39
2018-12-27T03:59:42.765Z,101876.65
2018-12-27T04:02:13.579Z,101880.20
2018-12-27T04:04:44.052Z,101875.33
2018-12-27T04:07:14.555Z,101871.74
2018-12-27T04:09:45.062Z,101876.80
2018-12-27T04:12:15.534Z,101872.02
2018-12-27T04:14:46.135Z,101872.30
2018-12-27T04:17:16.447Z,101870.08
2018-12-27T04:19:46.639Z,101879.38
2018-12-27T04:22:16.894Z,101868.69
2018-12-27T04:24:47.119Z,101865.57
2018-12-27T04:27:36.432Z,101867.70
2018-12-27T04:30:07.109Z,101864.19
2018-12-27T04:35:59.933Z,101858.06
2018-12-27T04:38:30.448Z,101855.35
2018-12-27T04:41:01.060Z,101854.02
2018-12-27T04:43:51.883Z,101848.31
2018-12-27T04:46:22.088Z,101843.80
2018-12-27T04:49:11.499Z,101848.65
2018-12-27T04:51:55.466Z,101844.94
2018-12-27T04:54:25.882Z,101838.24
2018-12-27T04:56:56.140Z,101839.08
2018-12-27T04:59:26.326Z,101846.52
2018-12-27T05:01:56.637Z,101840.00
2018-12-27T05:04:32.432Z,101849.80
2018-12-27T05:07:14.502Z,101838.24
2018-12-27T05:09:44.729Z,101848.46
2018-12-27T05:12:14.946Z,101837.10
2018-12-27T05:15:04.515Z,101838.03
2018-12-27T05:17:34.783Z,101837.97
2018-12-27T05:20:05.039Z,101841.02
2018-12-27T05:22:54.438Z,101842.34
2018-12-27T05:25:24.678Z,101832.66
2018-12-27T05:27:55.345Z,101840.63
2018-12-27T05:30:25.937Z,101841.73
2018-12-27T05:32:58.179Z,101840.00
2018-12-27T05:35:28.757Z,101845.78
2018-12-27T05:37:59.236Z,101847.44
2018-12-27T05:40:41.277Z,101846.11
2018-12-27T05:43:11.545Z,101858.06
2018-12-27T05:45:41.887Z,101860.66
2018-12-27T05:48:12.247Z,101872.67
2018-12-27T05:50:43.034Z,101862.05
2018-12-27T05:53:13.281Z,101864.64
2018-12-27T05:55:55.652Z,101870.42
2018-12-27T05:58:26.055Z,101872.27
2018-12-27T06:00:56.277Z,101867.77
2018-12-27T06:03:26.700Z,101872.21
2018-12-27T06:05:57.271Z,101872.14
2018-12-27T06:08:27.484Z,101863.78
2018-12-27T06:10:59.489Z,101865.05
2018-12-27T06:13:30.082Z,101866.65
2018-12-27T06:16:00.638Z,101858.34
2018-12-27T06:18:30.875Z,101859.14
2018-12-27T06:21:01.521Z,101866.65
2018-12-27T06:23:31.820Z,101862.72
2018-12-27T06:26:02.310Z,101863.09
2018-12-27T06:28:34.271Z,101865.38
2018-12-27T06:31:04.591Z,101863.66
2018-12-27T06:33:35.195Z,101859.33
2018-12-27T06:36:06.491Z,101852.36
2018-12-27T06:38:37.042Z,101854.08
2018-12-27T06:41:09.007Z,101858.80
2018-12-27T06:43:39.237Z,101857.35
2018-12-27T06:46:09.518Z,101854.20
2018-12-27T06:48:39.928Z,101857.72
2018-12-27T06:51:10.592Z,101855.12
2018-12-27T06:53:41.089Z,101858.22
2018-12-27T06:56:11.361Z,101850.25
2018-12-27T06:58:41.760Z,101849.45
2018-12-27T07:01:12.280Z,101840.09
2018-12-27T07:03:42.501Z,101843.17
2018-12-27T07:06:12.794Z,101840.05
2018-12-27T07:08:42.960Z,101847.56
2018-12-27T07:11:13.199Z,101846.23
2018-12-27T07:13:43.453Z,101845.77
2018-12-27T07:16:13.655Z,101848.76
2018-12-27T07:18:43.865Z,101839.40
2018-12-27T07:21:14.095Z,101838.88
2018-12-27T07:23:45.966Z,101835.02
2018-12-27T07:26:16.685Z,101841.26
2018-12-27T07:28:46.954Z,101838.53
2018-12-27T07:31:17.208Z,101826.31
2018-12-27T07:33:47.535Z,101829.30
2018-12-27T07:36:17.828Z,101832.36
2018-12-27T07:44:11.984Z,101823.59
2018-12-27T07:46:42.217Z,101816.55
2018-12-27T07:52:03.418Z,101828.59
2018-12-27T07:54:33.763Z,101827.27
2018-12-27T07:57:03.971Z,101825.55
2018-12-27T07:59:34.320Z,101826.41
2018-12-27T08:02:04.520Z,101824.61
2018-12-27T08:04:34.716Z,101829.83
2018-12-27T08:07:24.105Z,101822.59
2018-12-27T08:09:54.401Z,101817.02
2018-12-27T08:12:26.239Z,101820.94
2018-12-27T08:14:56.522Z,101821.86
2018-12-27T08:17:26.925Z,101820.01
2018-12-27T08:19:57.117Z,101821.00
2018-12-27T08:22:27.454Z,101829.30
2018-12-27T08:25:16.751Z,101824.52
2018-12-27T08:27:47.046Z,101823.59
2018-12-27T08:30:19.324Z,101821.86
2018-12-27T08:33:01.218Z,101820.53
2018-12-27T08:35:31.431Z,101822.66
2018-12-27T08:38:02.032Z,101822.66
2018-12-27T08:40:32.391Z,101830.16
2018-12-27T08:43:02.609Z,101826.25
2018-12-27T08:45:33.168Z,101836.34
2018-12-27T08:48:03.515Z,101826.52
2018-12-27T08:50:33.741Z,101819.87
2018-12-27T08:53:04.104Z,101830.91
2018-12-27T08:55:34.406Z,101826.39
2018-12-27T09:00:45.397Z,101825.98
2018-12-27T09:03:15.681Z,101825.06
2018-12-27T09:05:46.059Z,101828.58
2018-12-27T09:08:16.251Z,101831.20
2018-12-27T09:10:46.779Z,101835.53
2018-12-27T09:13:16.962Z,101825.77
2018-12-27T09:15:48.858Z,101832.47
2018-12-27T09:18:19.159Z,101841.70
2018-12-27T09:20:49.596Z,101841.70
2018-12-27T09:23:40.533Z,101838.52
2018-12-27T09:26:10.736Z,101845.56
2018-12-27T09:28:42.667Z,101842.38
2018-12-27T09:31:12.895Z,101834.53
2018-12-27T09:33:43.117Z,101833.61
2018-12-27T09:36:13.329Z,101836.09
2018-12-27T09:38:43.575Z,101840.15
2018-12-27T09:41:13.961Z,101831.25
2018-12-27T09:43:44.262Z,101830.72
2018-12-27T09:46:16.186Z,101840.48
2018-12-27T09:48:46.528Z,101843.08
2018-12-27T09:51:16.825Z,101838.76
2018-12-27T09:53:47.152Z,101837.19
2018-12-27T09:56:17.478Z,101837.72
2018-12-27T09:58:47.946Z,101835.46
2018-12-27T10:01:18.641Z,101846.02
2018-12-27T10:03:48.859Z,101841.17
2018-12-27T10:06:19.135Z,101832.41
2018-12-27T10:08:49.557Z,101838.80
2018-12-27T10:11:20.021Z,101833.40
2018-12-27T10:13:50.243Z,101830.74
2018-12-27T10:16:20.694Z,101833.86
2018-12-27T10:21:59.283Z,101836.92
2018-12-27T10:24:31.125Z,101833.34
2018-12-27T10:27:13.472Z,101834.13
2018-12-27T10:29:43.797Z,101825.77
2018-12-27T10:32:14.139Z,101829.48
2018-12-27T10:34:44.570Z,101832.94
2018-12-27T10:37:16.517Z,101821.38
2018-12-27T10:39:46.863Z,101825.77
2018-12-27T10:42:17.378Z,101820.39
2018-12-27T10:44:47.690Z,101819.76
2018-12-27T10:47:17.985Z,101829.86
2018-12-27T10:49:48.391Z,101826.20
2018-12-27T10:52:18.815Z,101827.93
2018-12-27T10:54:49.304Z,101823.95
2018-12-27T10:57:20.203Z,101823.41
2018-12-27T10:59:50.855Z,101824.74
2018-12-27T11:02:22.920Z,101824.81
2018-12-27T11:04:53.781Z,101819.09
2018-12-27T11:07:43.053Z,101827.53
2018-12-27T11:10:13.349Z,101816.91
2018-12-27T11:12:43.690Z,101810.66
2018-12-27T11:15:33.424Z,101814.88
2018-12-27T11:18:03.882Z,101794.41
2018-12-27T11:20:34.109Z,101794.48
2018-12-27T11:23:23.436Z,101797.53
2018-12-27T11:25:54.139Z,101800.13
2018-12-27T11:28:24.387Z,101802.66
2018-12-27T11:30:54.924Z,101796.94
2018-12-27T11:33:38.149Z,101798.20
2018-12-27T11:36:08.563Z,101799.92
2018-12-27T11:38:38.822Z,101794.51
2018-12-27T11:41:09.133Z,101793.98
2018-12-27T11:43:41.117Z,101798.42
2018-12-27T11:46:11.360Z,101789.45
2018-12-27T11:48:41.562Z,101792.64
2018-12-27T11:51:11.990Z,101788.98
2018-12-27T11:53:42.334Z,101792.44
2018-12-27T11:56:14.202Z,101787.59
2018-12-27T11:58:46.533Z,101775.63
2018-12-27T12:01:16.763Z,101782.28
2018-12-27T12:03:47.670Z,101787.27
2018-12-27T12:06:19.685Z,101783.34
2018-12-27T12:08:50.159Z,101777.62
2018-12-27T12:11:20.409Z,101775.04
2018-12-27T12:13:50.859Z,101769.33
2018-12-27T12:16:22.882Z,101768.50
2018-12-27T12:18:53.068Z,101766.30
2018-12-27T12:21:24.338Z,101765.37
2018-12-27T12:23:54.879Z,101768.89
2018-12-27T12:26:25.140Z,101771.38
2018-12-27T12:28:55.423Z,101772.70
2018-12-27T12:31:25.768Z,101768.33
2018-12-27T12:33:56.002Z,101763.80
2018-12-27T12:36:26.364Z,101772.64
2018-12-27T12:38:56.589Z,101763.73
2018-12-27T12:41:26.807Z,101754.50
2018-12-27T12:43:57.204Z,101770.84
2018-12-27T12:46:27.402Z,101768.19
2018-12-27T12:48:58.035Z,101765.93
2018-12-27T12:51:47.450Z,101765.93
2018-12-27T12:54:17.674Z,101769.34
2018-12-27T12:56:47.947Z,101776.32
2018-12-27T12:59:18.283Z,101766.55
2018-12-27T13:01:48.682Z,101778.98
2018-12-27T13:04:18.902Z,101770.40
2018-12-27T13:07:08.256Z,101767.14
2018-12-27T13:09:38.469Z,101775.18
2018-12-27T13:12:08.860Z,101770.73
2018-12-27T13:14:39.192Z,101776.34
2018-12-27T13:17:09.480Z,101775.80
2018-12-27T13:19:39.762Z,101771.81
2018-12-27T13:22:10.062Z,101767.83
2018-12-27T13:24:41.992Z,101759.16
2018-12-27T13:27:12.242Z,101765.16
2018-12-27T13:29:42.954Z,101765.95
2018-12-27T13:32:13.285Z,101757.05
2018-12-27T13:34:43.609Z,101763.30
2018-12-27T13:37:13.855Z,101758.52
2018-12-27T13:39:44.390Z,101759.70
2018-12-27T13:42:14.643Z,101756.19
2018-12-27T13:44:44.852Z,101755.72
2018-12-27T13:47:15.279Z,101763.70
2018-12-27T13:49:45.589Z,101769.70
2018-12-27T13:52:27.705Z,101760.39
2018-12-27T13:54:58.032Z,101763.84
2018-12-27T13:57:28.697Z,101768.48
2018-12-27T14:00:17.999Z,101766.29
2018-12-27T14:02:48.751Z,101760.00
2018-12-27T14:05:19.005Z,101772.77
2018-12-27T14:07:49.272Z,101766.51
2018-12-27T14:10:19.620Z,101767.16
2018-12-27T14:12:49.917Z,101769.71
2018-12-27T14:15:21.780Z,101764.78
2018-12-27T14:17:52.388Z,101762.77
2018-12-27T14:20:22.596Z,101771.62
2018-12-27T14:23:12.051Z,101768.95
2018-12-27T14:25:42.296Z,101765.44
2018-12-27T14:28:12.827Z,101767.98
2018-12-27T14:30:43.069Z,101768.41
2018-12-27T14:33:13.394Z,101769.27
2018-12-27T14:35:43.655Z,101769.27
2018-12-27T14:38:15.504Z,101771.32
2018-12-27T14:40:47.453Z,101770.60
2018-12-27T14:43:17.663Z,101778.11
2018-12-27T14:45:47.907Z,101775.92
2018-12-27T14:48:18.208Z,101774.27
2018-12-27T14:50:50.235Z,101775.20
2018-12-27T14:53:22.526Z,101779.20
2018-12-27T14:55:52.890Z,101780.14
2018-12-27T14:58:23.116Z,101778.80
2018-12-27T15:00:53.716Z,101782.33
2018-12-27T15:03:24.131Z,101781.07
2018-12-27T15:05:54.434Z,101779.81
2018-12-27T15:08:24.836Z,101785.99
2018-12-27T15:10:55.174Z,101783.27
2018-12-27T15:13:25.607Z,101784.12
2018-12-27T15:15:56.248Z,101788.59
2018-12-27T15:18:26.517Z,101781.00
2018-12-27T15:21:09.042Z,101794.70
2018-12-27T15:23:39.320Z,101794.16
2018-12-27T15:26:09.524Z,101783.91
2018-12-27T15:28:40.010Z,101787.50
2018-12-27T15:31:10.195Z,101779.53
2018-12-27T15:33:40.527Z,101789.37
2018-12-27T15:36:10.953Z,101788.12
2018-12-27T15:38:41.170Z,101792.97
2018-12-27T15:41:13.031Z,101787.04
2018-12-27T15:43:43.927Z,101777.73
2018-12-27T15:46:14.200Z,101776.87
2018-12-27T15:48:44.674Z,101780.20
2018-12-27T15:51:14.957Z,101785.20
2018-12-27T15:53:45.174Z,101784.12
2018-12-27T15:56:15.705Z,101777.88
2018-12-27T15:58:46.046Z,101776.94
2018-12-27T16:01:16.261Z,101776.07
2018-12-27T16:03:46.602Z,101780.45
2018-12-27T16:06:17.301Z,101783.27
2018-12-27T16:08:47.630Z,101782.87
2018-12-27T16:11:18.149Z,101779.13
2018-12-27T16:16:30.491Z,101779.41
2018-12-27T16:19:00.737Z,101778.87
2018-12-27T16:21:31.030Z,101778.80
2018-12-27T16:24:02.968Z,101773.81
2018-12-27T16:26:33.521Z,101775.50
2018-12-27T16:29:22.829Z,101772.30
2018-12-27T16:31:53.102Z,101774.42
2018-12-27T16:34:23.298Z,101779.09
2018-12-27T16:36:53.613Z,101774.67
2018-12-27T16:39:24.062Z,101767.05
2018-12-27T16:41:54.395Z,101777.33
2018-12-27T16:44:24.831Z,101774.74
2018-12-27T16:46:55.201Z,101776.75
2018-12-27T16:49:25.489Z,101785.13
2018-12-27T16:51:56.130Z,101773.16
2018-12-27T16:54:45.551Z,101770.42
2018-12-27T16:57:19.681Z,101771.83
2018-12-27T16:59:53.212Z,101769.70
2018-12-27T17:02:23.656Z,101783.00
2018-12-27T17:04:54.062Z,101787.00
2018-12-27T17:07:24.320Z,101779.41
2018-12-27T17:09:56.300Z,101787.32
2018-12-27T17:12:26.677Z,101775.03
2018-12-27T17:14:57.109Z,101773.95
2018-12-27T17:17:27.546Z,101776.75
2018-12-27T17:19:57.856Z,101777.69
2018-12-27T17:22:28.676Z,101772.69
2018-12-27T17:24:59.560Z,101768.63
2018-12-27T17:27:48.876Z,101771.29
2018-12-27T17:30:19.130Z,101768.87
2018-12-27T17:32:49.430Z,101767.98
2018-12-27T17:35:19.716Z,101774.20
2018-12-27T17:37:50.073Z,101771.54
2018-12-27T17:40:20.342Z,101776.42
2018-12-27T17:45:33.173Z,101777.08
2018-12-27T17:48:18.701Z,101778.95
2018-12-27T17:50:41.564Z,101777.69
2018-12-27T17:53:12.678Z,101783.26
2018-12-27T17:55:43.134Z,101778.80
2018-12-27T17:58:13.892Z,101779.27
2018-12-27T18:00:44.256Z,101789.37
2018-12-27T18:03:14.640Z,101781.93
2018-12-27T18:06:04.339Z,101788.58
2018-12-27T18:08:34.627Z,101785.45
2018-12-27T18:11:04.889Z,101780.20
2018-12-27T18:13:35.235Z,101781.86
2018-12-27T18:18:57.285Z,101786.92
2018-12-27T18:21:29.632Z,101786.59
2018-12-27T18:24:00.416Z,101788.33
2018-12-27T18:26:30.779Z,101790.05
2018-12-27T18:29:01.573Z,101796.81
2018-12-27T18:31:32.116Z,101795.23
2018-12-27T18:36:50.398Z,101802.56
2018-12-27T18:39:33.168Z,101807.45
2018-12-27T18:42:03.457Z,101804.14
2018-12-27T18:44:33.719Z,101803.67
2018-12-27T18:47:04.141Z,101800.16
2018-12-27T18:49:34.362Z,101810.66
2018-12-27T18:52:04.586Z,101815.04
2018-12-27T18:54:34.875Z,101816.91
2018-12-27T18:57:05.539Z,101821.30
2018-12-27T18:59:35.850Z,101817.84
2018-12-27T19:02:06.469Z,101818.30
2018-12-27T19:04:36.834Z,101821.83
2018-12-27T19:07:08.817Z,101810.25
2018-12-27T19:09:39.060Z,101806.66
2018-12-27T19:12:47.482Z,101802.09
2018-12-27T19:15:21.280Z,101800.16
2018-12-27T19:18:13.202Z,101794.98
2018-12-27T19:20:45.708Z,101796.70
2018-12-27T19:23:35.125Z,101799.91
2018-12-27T19:26:05.645Z,101798.22
2018-12-27T19:28:56.459Z,101801.73
2018-12-27T19:31:26.760Z,101798.28
2018-12-27T19:33:57.044Z,101799.61
2018-12-27T19:36:27.299Z,101801.34
2018-12-27T19:38:57.532Z,101795.77
2018-12-27T19:41:27.871Z,101792.56
2018-12-27T19:43:58.479Z,101794.23
2018-12-27T19:46:28.814Z,101781.14
2018-12-27T19:48:59.045Z,101786.45
2018-12-27T19:51:48.625Z,101779.02
2018-12-27T19:54:18.891Z,101810.19
2018-12-27T19:56:49.147Z,101809.86
2018-12-27T19:59:19.595Z,101813.85
2018-12-27T20:01:49.800Z,101814.78
2018-12-27T20:04:27.842Z,101806.20
2018-12-27T20:06:59.767Z,101797.35
2018-12-27T20:09:45.300Z,101801.62
2018-12-27T20:12:15.661Z,101806.01
2018-12-27T20:15:05.014Z,101807.67
2018-12-27T20:17:35.288Z,101808.53
2018-12-27T20:20:06.380Z,101808.67
2018-12-27T20:22:36.628Z,101798.96
2018-12-27T20:25:07.416Z,101806.12
2018-12-27T20:27:37.733Z,101807.88
2018-12-27T20:30:08.679Z,101797.63
2018-12-27T20:32:38.918Z,101787.50
2018-12-27T20:35:22.817Z,101794.98
2018-12-27T20:37:53.039Z,101813.20
2018-12-27T20:40:23.259Z,101808.34
2018-12-27T20:42:53.929Z,101802.48
2018-12-27T20:45:24.189Z,101819.09
2018-12-27T20:48:00.217Z,101823.84
2018-12-27T20:50:30.829Z,101823.78
2018-12-27T20:53:01.021Z,101815.33
2018-12-27T20:55:31.520Z,101827.70
2018-12-27T20:58:01.782Z,101815.87
2018-12-27T21:00:32.573Z,101811.34
2018-12-27T21:03:03.033Z,101811.80
2018-12-27T21:05:33.450Z,101812.59
2018-12-27T21:08:22.809Z,101813.53
2018-12-27T21:10:53.229Z,101816.59
2018-12-27T21:13:23.646Z,101822.30
2018-12-27T21:15:53.956Z,101824.64
2018-12-27T21:18:24.210Z,101814.93
2018-12-27T21:20:54.436Z,101809.22
2018-12-27T21:23:24.672Z,101811.02
2018-12-27T21:25:54.983Z,101802.28
2018-12-27T21:28:27.009Z,101808.27
2018-12-27T21:30:57.225Z,101803.42
2018-12-27T21:33:27.589Z,101800.16
2018-12-27T21:35:57.918Z,101799.22
2018-12-27T21:38:28.174Z,101797.89
2018-12-27T21:40:58.575Z,101788.98
2018-12-27T21:43:28.813Z,101791.64
2018-12-27T21:45:59.266Z,101793.25
2018-12-27T21:48:32.702Z,101798.14
2018-12-27T21:51:03.029Z,101792.81
2018-12-27T21:53:52.211Z,101789.77
2018-12-27T21:56:22.461Z,101777.40
2018-12-27T21:58:52.683Z,101777.28
2018-12-27T22:01:22.918Z,101772.83
2018-12-27T22:03:53.363Z,101777.28
2018-12-27T22:06:23.645Z,101766.69
2018-12-27T22:08:53.965Z,101772.06
2018-12-27T22:11:24.282Z,101770.73
2018-12-27T22:13:54.524Z,101772.89
2018-12-27T22:16:24.761Z,101767.15
2018-12-27T22:18:55.036Z,101773.33
2018-12-27T22:21:25.300Z,101762.83
2018-12-27T22:23:55.549Z,101746.41
2018-12-27T22:26:25.874Z,101750.54
2018-12-27T22:28:56.720Z,101757.58
2018-12-27T22:31:26.915Z,101753.20
2018-12-27T22:33:57.210Z,101753.20
2018-12-27T22:36:27.519Z,101745.62
2018-12-27T22:39:18.500Z,101746.41
2018-12-27T22:41:48.735Z,101749.07
2018-12-27T22:44:19.081Z,101751.73
2018-12-27T22:46:49.702Z,101748.28
2018-12-27T22:49:19.954Z,101755.86
2018-12-27T22:51:51.789Z,101750.14
2018-12-27T22:54:22.165Z,101756.33
2018-12-27T22:56:52.438Z,101748.28
2018-12-27T22:59:24.651Z,101750.00
2018-12-27T23:01:54.899Z,101753.59
2018-12-27T23:04:25.458Z,101757.05
2018-12-27T23:06:55.682Z,101757.12
2018-12-27T23:09:26.255Z,101764.63
2018-12-27T23:11:58.305Z,101758.77
2018-12-27T23:14:28.564Z,101763.59
2018-12-27T23:17:00.458Z,101760.50
2018-12-27T23:19:30.829Z,101770.23
2018-12-27T23:22:01.175Z,101771.20
2018-12-27T23:24:31.497Z,101771.03
2018-12-27T23:27:02.141Z,101778.47
2018-12-27T23:29:34.173Z,101774.88
2018-12-27T23:32:04.407Z,101775.88
2018-12-27T23:34:34.757Z,101776.45
2018-12-27T23:37:05.176Z,101777.78
2018-12-27T23:39:35.543Z,101795.06
2018-12-27T23:42:05.769Z,101789.75
2018-12-27T23:44:36.112Z,101785.26
2018-12-27T23:47:18.471Z,101776.75
2018-12-27T23:49:49.076Z,101782.39
2018-12-27T23:52:19.605Z,101777.40
2018-12-27T23:54:51.459Z,101778.66
2018-12-27T23:57:22.135Z,101778.48
2018-12-27T23:59:52.484Z,101779.27
